Time;durP1;ratioP1;P1;durP2;ratioP2;P2;SDS_P1;SDS_P2;PMS_P1;PMS_P2;Temp;Humidity;BMP_temperature;BMP_pressure;BME280_temperature;BME280_humidity;BME280_pressure;Samples;Min_cycle;Max_cycle;Signal;HPM_P1;HPM_P2
2021/12/07 00:01:14;;;;;;;25.65;18.05;;;;;;;;;;5072970;28;20193;-68
2021/12/07 00:03:39;;;;;;;41.60;29.55;;;;;;;;;;5072757;28;20033;-69
2021/12/07 00:06:05;;;;;;;37.70;25.88;;;;;;;;;;5074036;28;20453;-68
2021/12/07 00:08:31;;;;;;;30.85;20.65;;;;;;;;;;5076171;28;20028;-69
2021/12/07 00:10:57;;;;;;;58.47;38.35;;;;;;;;;;5076189;28;20048;-69
2021/12/07 00:13:24;;;;;;;32.67;21.63;;;;;;;;;;5076602;28;20029;-69
2021/12/07 00:15:50;;;;;;;34.13;21.42;;;;;;;;;;5058297;28;20403;-68
2021/12/07 00:18:16;;;;;;;33.42;24.17;;;;;;;;;;5076278;28;20032;-68
2021/12/07 00:20:42;;;;;;;31.35;22.15;;;;;;;;;;5076047;28;20033;-68
2021/12/07 00:23:09;;;;;;;29.10;20.58;;;;;;;;;;5076335;28;20088;-69
2021/12/07 00:25:35;;;;;;;29.00;19.33;;;;;;;;;;5076296;28;20037;-70
2021/12/07 00:28:01;;;;;;;29.80;21.48;;;;;;;;;;5076347;28;20168;-69
2021/12/07 00:30:30;;;;;;;27.85;20.27;;;;;;;;;;5075883;28;20036;-70
2021/12/07 00:33:10;;;;;;;24.43;17.43;;;;;;;;;;5076102;28;20517;-70
2021/12/07 00:35:36;;;;;;;29.50;21.23;;;;;;;;;;5058238;28;20119;-70
2021/12/07 00:38:09;;;;;;;29.95;21.33;;;;;;;;;;5075724;28;20071;-70
2021/12/07 00:40:36;;;;;;;28.63;18.77;;;;;;;;;;5075724;28;20028;-70
2021/12/07 00:43:02;;;;;;;27.30;18.50;;;;;;;;;;5057885;28;20021;-70
2021/12/07 00:45:31;;;;;;;26.60;17.00;;;;;;;;;;5075701;28;20096;-70
2021/12/07 00:47:57;;;;;;;28.83;18.10;;;;;;;;;;5075584;28;20031;-69
2021/12/07 00:50:24;;;;;;;25.10;17.23;;;;;;;;;;5057608;28;20040;-70
2021/12/07 00:52:49;;;;;;;23.33;17.23;;;;;;;;;;5075391;28;20028;-69
2021/12/07 00:55:19;;;;;;;23.95;17.05;;;;;;;;;;5057447;28;20063;-70
2021/12/07 00:57:49;;;;;;;20.90;16.00;;;;;;;;;;5075621;28;20044;-70
2021/12/07 01:00:16;;;;;;;26.15;17.40;;;;;;;;;;5057590;28;20102;-69
2021/12/07 01:02:42;;;;;;;25.00;17.90;;;;;;;;;;5057377;28;20064;-68
2021/12/07 01:05:14;;;;;;;31.15;20.15;;;;;;;;;;5057817;28;20027;-69
2021/12/07 01:26:52;;;;;;;19.77;14.82;;;;;;;;;;5075215;28;20124;-69
2021/12/07 01:29:20;;;;;;;19.38;14.77;;;;;;;;;;5057256;28;20056;-69
2021/12/07 01:31:55;;;;;;;22.02;16.02;;;;;;;;;;5057137;28;20049;-69
2021/12/07 01:34:51;;;;;;;22.90;15.65;;;;;;;;;;5057187;28;20102;-70
2021/12/07 01:45:19;;;;;;;25.77;16.13;;;;;;;;;;5056963;28;20040;-69
2021/12/07 01:48:07;;;;;;;23.48;16.73;;;;;;;;;;5057022;28;20083;-69
2021/12/07 02:01:07;;;;;;;29.45;18.67;;;;;;;;;;5056241;28;20438;-65
2021/12/07 02:03:33;;;;;;;27.58;19.13;;;;;;;;;;5056625;28;20035;-65
2021/12/07 02:05:59;;;;;;;25.98;18.52;;;;;;;;;;5056357;28;20044;-63
2021/12/07 02:08:25;;;;;;;23.70;16.60;;;;;;;;;;5074271;28;20028;-68
2021/12/07 02:10:54;;;;;;;24.83;16.95;;;;;;;;;;5039824;28;20371;-68
2021/12/07 02:14:14;;;;;;;26.52;18.00;;;;;;;;;;5056226;28;20040;-63
2021/12/07 02:16:11;;;;;;;27.98;18.67;;;;;;;;;;5056221;28;20086;-65
2021/12/07 02:18:38;;;;;;;28.45;19.05;;;;;;;;;;5056249;28;20032;-64
2021/12/07 02:21:24;;;;;;;28.13;18.95;;;;;;;;;;5055769;28;20036;-67
2021/12/07 02:23:56;;;;;;;28.05;17.90;;;;;;;;;;5056107;28;20040;-67
2021/12/07 02:26:22;;;;;;;26.67;17.33;;;;;;;;;;5056003;28;20035;-67
2021/12/07 02:28:49;;;;;;;23.55;17.08;;;;;;;;;;5055477;28;20340;-67
2021/12/07 02:31:15;;;;;;;27.58;18.00;;;;;;;;;;5055726;28;20044;-69
2021/12/07 02:33:41;;;;;;;26.45;17.05;;;;;;;;;;5056043;28;20402;-69
2021/12/07 02:36:07;;;;;;;25.23;16.55;;;;;;;;;;5055865;28;20127;-69
2021/12/07 02:38:33;;;;;;;25.77;17.17;;;;;;;;;;5055770;28;20043;-69
2021/12/07 02:40:58;;;;;;;29.17;19.80;;;;;;;;;;5039190;28;20040;-69
2021/12/07 02:43:24;;;;;;;26.60;18.35;;;;;;;;;;5073730;28;20036;-69
2021/12/07 02:45:50;;;;;;;30.40;19.13;;;;;;;;;;5055783;28;20079;-69
2021/12/07 02:48:16;;;;;;;26.42;18.10;;;;;;;;;;5055732;28;20055;-69
2021/12/07 02:50:42;;;;;;;29.52;19.92;;;;;;;;;;5055425;28;20028;-69
2021/12/07 02:53:07;;;;;;;28.27;18.40;;;;;;;;;;5073240;28;20025;-68
2021/12/07 02:55:34;;;;;;;28.30;18.92;;;;;;;;;;5055729;28;20037;-69
2021/12/07 02:58:00;;;;;;;27.55;17.92;;;;;;;;;;5055576;28;20086;-69
2021/12/07 03:00:34;;;;;;;31.75;19.30;;;;;;;;;;5055478;28;20140;-69
2021/12/07 03:03:06;;;;;;;29.10;19.33;;;;;;;;;;5055523;28;20036;-69
2021/12/07 03:26:40;;;;;;;30.70;17.95;;;;;;;;;;5055254;28;20485;-68
2021/12/07 03:29:06;;;;;;;31.55;19.83;;;;;;;;;;5055028;28;20175;-69
2021/12/07 03:31:32;;;;;;;32.85;20.50;;;;;;;;;;5054934;28;20043;-64
2021/12/07 03:33:59;;;;;;;33.83;18.65;;;;;;;;;;5055142;28;20060;-64
2021/12/07 03:36:28;;;;;;;32.10;20.08;;;;;;;;;;5054939;28;20037;-64
2021/12/07 03:38:56;;;;;;;34.70;22.13;;;;;;;;;;5055336;28;20033;-64
2021/12/07 03:41:22;;;;;;;35.45;21.30;;;;;;;;;;5058590;28;20048;-65
2021/12/07 03:43:49;;;;;;;32.33;19.50;;;;;;;;;;5077162;28;20020;-64
2021/12/07 03:46:16;;;;;;;37.05;22.23;;;;;;;;;;5058992;28;20037;-63
2021/12/07 03:48:42;;;;;;;34.58;21.58;;;;;;;;;;5076833;28;20432;-64
2021/12/07 03:51:08;;;;;;;36.35;21.67;;;;;;;;;;5058830;28;20044;-65
2021/12/07 03:53:35;;;;;;;40.63;22.55;;;;;;;;;;5058307;28;20044;-65
2021/12/07 03:56:00;;;;;;;39.25;23.33;;;;;;;;;;5059333;28;20110;-65
2021/12/07 03:58:28;;;;;;;39.25;22.70;;;;;;;;;;5058987;28;20037;-69
2021/12/07 04:00:54;;;;;;;40.92;24.15;;;;;;;;;;5058541;28;20086;-69
2021/12/07 04:03:19;;;;;;;39.22;22.48;;;;;;;;;;5076617;28;20029;-69
2021/12/07 04:05:48;;;;;;;41.97;24.63;;;;;;;;;;5058656;28;20123;-69
2021/12/07 04:08:19;;;;;;;42.38;24.75;;;;;;;;;;5058548;28;20033;-70
2021/12/07 04:10:46;;;;;;;62.88;29.95;;;;;;;;;;5058442;28;20037;-69
2021/12/07 04:13:11;;;;;;;47.33;26.65;;;;;;;;;;5058701;28;20024;-69
2021/12/07 04:15:37;;;;;;;60.58;28.83;;;;;;;;;;5058658;28;20040;-69
2021/12/07 04:18:03;;;;;;;63.40;32.72;;;;;;;;;;5058384;28;20025;-69
2021/12/07 04:20:29;;;;;;;51.83;27.38;;;;;;;;;;5058162;28;20466;-70
2021/12/07 04:22:56;;;;;;;42.78;25.25;;;;;;;;;;5058261;28;20110;-70
2021/12/07 04:25:23;;;;;;;40.28;22.40;;;;;;;;;;5058150;28;20067;-70
2021/12/07 04:27:49;;;;;;;43.20;24.92;;;;;;;;;;5076281;28;20482;-70
2021/12/07 04:30:16;;;;;;;49.58;27.40;;;;;;;;;;5076264;28;20117;-69
2021/12/07 04:32:42;;;;;;;47.70;26.95;;;;;;;;;;5076039;28;20418;-70
2021/12/07 04:35:09;;;;;;;51.63;27.38;;;;;;;;;;5075965;28;20032;-70
2021/12/07 04:37:34;;;;;;;47.80;27.65;;;;;;;;;;5058013;28;20052;-70
2021/12/07 04:40:00;;;;;;;46.40;27.80;;;;;;;;;;5076076;28;20470;-70
2021/12/07 04:42:26;;;;;;;36.55;22.80;;;;;;;;;;5075769;28;20568;-70
2021/12/07 04:44:57;;;;;;;39.13;23.55;;;;;;;;;;5075707;28;20037;-70
2021/12/07 04:47:34;;;;;;;;;;;;;;;;;;5076126;28;20043;-70
2021/12/07 04:57:38;;;;;;;34.90;21.05;;;;;;;;;;5057799;28;20094;-67
2021/12/07 04:58:26;;;;;;;41.03;24.27;;;;;;;;;;5075438;28;20048;-66
2021/12/07 05:00:54;;;;;;;46.17;25.98;;;;;;;;;;5075579;28;20043;-66
2021/12/07 05:03:20;;;;;;;39.13;23.75;;;;;;;;;;5075361;28;20423;-66
2021/12/07 05:05:49;;;;;;;46.75;27.42;;;;;;;;;;5075719;28;20055;-66
2021/12/07 05:08:21;;;;;;;53.50;30.40;;;;;;;;;;5058006;28;20036;-67
2021/12/07 05:34:36;;;;;;;47.03;29.40;;;;;;;;;;5071574;28;20068;-67
2021/12/07 05:34:50;;;;;;;38.20;20.23;;;;;;;;;;5075116;28;20593;-66
2021/12/07 05:40:02;;;;;;;38.40;21.90;;;;;;;;;;5074957;28;20040;-66
2021/12/07 05:42:27;;;;;;;49.35;28.52;;;;;;;;;;5075096;28;20519;-65
2021/12/07 05:44:54;;;;;;;60.20;34.35;;;;;;;;;;5074644;28;20032;-65
2021/12/07 05:47:20;;;;;;;39.17;22.25;;;;;;;;;;5074590;28;20118;-65
2021/12/07 05:49:46;;;;;;;48.72;26.98;;;;;;;;;;5074798;28;20116;-65
2021/12/07 05:52:11;;;;;;;45.00;24.90;;;;;;;;;;5074211;28;20552;-66
2021/12/07 05:54:37;;;;;;;58.13;31.50;;;;;;;;;;5073909;28;20533;-66
2021/12/07 05:57:02;;;;;;;58.70;34.17;;;;;;;;;;5074056;28;20037;-66
2021/12/07 05:59:28;;;;;;;56.20;32.47;;;;;;;;;;5074086;28;20033;-67
2021/12/07 06:01:53;;;;;;;43.63;25.42;;;;;;;;;;5073900;28;20028;-68
2021/12/07 06:04:19;;;;;;;43.13;24.20;;;;;;;;;;5072863;28;20036;-68
2021/12/07 06:06:44;;;;;;;49.25;27.02;;;;;;;;;;5074052;28;20029;-65
2021/12/07 06:09:09;;;;;;;49.85;27.45;;;;;;;;;;5073853;28;20497;-64
2021/12/07 06:11:35;;;;;;;43.72;24.15;;;;;;;;;;5073878;28;20073;-66
2021/12/07 06:14:00;;;;;;;46.75;25.73;;;;;;;;;;5073229;28;20475;-67
2021/12/07 06:16:30;;;;;;;48.38;26.65;;;;;;;;;;5073979;28;20031;-65
2021/12/07 06:18:55;;;;;;;46.60;26.07;;;;;;;;;;5055804;28;20521;-66
2021/12/07 06:21:21;;;;;;;46.83;26.55;;;;;;;;;;5073510;28;20143;-65
2021/12/07 06:23:46;;;;;;;47.72;25.48;;;;;;;;;;5073623;28;20086;-66
2021/12/07 06:26:12;;;;;;;44.30;24.05;;;;;;;;;;5073601;28;20466;-65
2021/12/07 06:28:37;;;;;;;45.42;24.40;;;;;;;;;;5073434;28;20037;-65
2021/12/07 06:31:03;;;;;;;46.58;26.00;;;;;;;;;;5073659;28;20067;-65
2021/12/07 06:33:28;;;;;;;46.38;26.67;;;;;;;;;;5073550;28;20032;-65
2021/12/07 06:35:57;;;;;;;44.80;25.40;;;;;;;;;;5073531;28;20387;-66
2021/12/07 06:38:23;;;;;;;46.03;24.98;;;;;;;;;;5073497;28;20479;-65
2021/12/07 06:40:49;;;;;;;72.47;42.58;;;;;;;;;;5073359;28;20033;-65
2021/12/07 06:43:15;;;;;;;49.55;29.55;;;;;;;;;;5073338;28;20032;-66
2021/12/07 06:45:41;;;;;;;41.83;27.65;;;;;;;;;;5073300;28;20467;-65
2021/12/07 06:48:07;;;;;;;43.70;23.98;;;;;;;;;;5054802;28;20098;-64
2021/12/07 06:50:32;;;;;;;38.78;23.23;;;;;;;;;;5073166;28;20029;-65
2021/12/07 06:52:58;;;;;;;36.45;22.00;;;;;;;;;;5073062;28;20041;-66
2021/12/07 06:55:23;;;;;;;52.83;33.65;;;;;;;;;;5073171;28;20049;-66
2021/12/07 06:57:49;;;;;;;122.13;81.95;;;;;;;;;;5073038;28;20561;-66
2021/12/07 07:00:15;;;;;;;171.45;120.35;;;;;;;;;;5073334;28;20032;-66
2021/12/07 07:02:40;;;;;;;74.60;48.72;;;;;;;;;;5073019;28;20079;-66
2021/12/07 07:05:06;;;;;;;79.05;47.00;;;;;;;;;;5073161;28;20031;-66
2021/12/07 07:07:33;;;;;;;117.55;86.93;;;;;;;;;;5073156;28;20375;-67
2021/12/07 07:09:59;;;;;;;58.03;33.95;;;;;;;;;;5072662;28;20020;-67
2021/12/07 07:12:24;;;;;;;51.08;30.55;;;;;;;;;;5073246;28;20054;-67
2021/12/07 07:14:50;;;;;;;40.72;26.60;;;;;;;;;;5072614;28;20091;-67
2021/12/07 07:17:15;;;;;;;68.60;48.45;;;;;;;;;;5073083;28;20457;-67
2021/12/07 07:19:40;;;;;;;47.05;32.75;;;;;;;;;;5073000;28;20029;-67
2021/12/07 07:22:06;;;;;;;40.53;26.60;;;;;;;;;;5054954;28;20086;-67
2021/12/07 07:24:32;;;;;;;59.10;43.15;;;;;;;;;;5072921;28;20028;-67
2021/12/07 07:26:58;;;;;;;38.55;27.35;;;;;;;;;;5038358;28;20123;-67
2021/12/07 07:29:23;;;;;;;46.97;33.33;;;;;;;;;;5072829;28;20467;-67
2021/12/07 07:31:49;;;;;;;33.78;21.17;;;;;;;;;;5072861;28;20086;-67
2021/12/07 07:34:14;;;;;;;36.58;22.50;;;;;;;;;;5072804;28;20474;-67
2021/12/07 07:36:40;;;;;;;36.60;23.23;;;;;;;;;;5072674;28;20502;-67
2021/12/07 07:39:05;;;;;;;42.65;25.77;;;;;;;;;;5072850;28;20028;-67
2021/12/07 07:41:31;;;;;;;35.55;22.85;;;;;;;;;;5072660;28;20179;-67
2021/12/07 07:43:56;;;;;;;40.35;25.08;;;;;;;;;;5072903;28;20497;-67
2021/12/07 07:46:24;;;;;;;40.63;25.73;;;;;;;;;;5054755;28;20033;-66
2021/12/07 07:48:49;;;;;;;47.45;28.77;;;;;;;;;;5072640;28;20020;-66
2021/12/07 07:51:15;;;;;;;59.55;39.97;;;;;;;;;;5054754;28;20051;-66
2021/12/07 07:53:40;;;;;;;120.10;96.72;;;;;;;;;;5071993;28;20106;-67
2021/12/07 07:56:06;;;;;;;61.80;43.67;;;;;;;;;;5072868;28;20057;-66
2021/12/07 07:58:32;;;;;;;144.60;114.47;;;;;;;;;;5072647;28;20037;-66
2021/12/07 08:00:57;;;;;;;71.43;50.08;;;;;;;;;;5072539;28;20401;-66
2021/12/07 08:03:23;;;;;;;48.50;33.10;;;;;;;;;;5072306;28;20033;-66
2021/12/07 08:05:48;;;;;;;47.90;30.58;;;;;;;;;;5072590;28;20093;-66
2021/12/07 08:08:19;;;;;;;90.07;62.20;;;;;;;;;;5054632;28;20031;-66
2021/12/07 08:10:45;;;;;;;99.38;71.20;;;;;;;;;;5072639;28;20170;-66
2021/12/07 08:13:11;;;;;;;48.20;32.25;;;;;;;;;;5054545;28;20059;-66
2021/12/07 08:15:41;;;;;;;41.97;24.98;;;;;;;;;;5072204;28;20486;-66
2021/12/07 08:18:07;;;;;;;40.33;26.38;;;;;;;;;;5071975;28;20013;-66
2021/12/07 08:20:33;;;;;;;44.75;28.70;;;;;;;;;;5072080;28;20036;-66
2021/12/07 08:23:03;;;;;;;38.55;24.25;;;;;;;;;;5054303;28;20098;-66
2021/12/07 08:25:29;;;;;;;41.70;24.33;;;;;;;;;;5072331;28;20033;-66
2021/12/07 08:27:56;;;;;;;48.65;30.67;;;;;;;;;;5074567;28;20471;-65
2021/12/07 08:30:21;;;;;;;37.90;21.45;;;;;;;;;;5075848;28;20044;-66
2021/12/07 08:32:47;;;;;;;40.22;24.52;;;;;;;;;;5075723;28;20032;-66
2021/12/07 08:35:14;;;;;;;40.63;25.23;;;;;;;;;;5075741;28;20032;-65
2021/12/07 08:37:39;;;;;;;43.35;24.92;;;;;;;;;;5075671;28;20409;-66
2021/12/07 08:40:06;;;;;;;48.92;27.50;;;;;;;;;;5075639;28;20044;-66
2021/12/07 08:42:31;;;;;;;56.00;31.50;;;;;;;;;;5075454;28;20039;-66
2021/12/07 08:44:57;;;;;;;46.65;26.73;;;;;;;;;;5075462;28;20028;-66
2021/12/07 08:47:23;;;;;;;56.85;31.23;;;;;;;;;;5075538;28;20475;-64
2021/12/07 08:49:49;;;;;;;44.38;25.50;;;;;;;;;;5075534;28;20398;-66
2021/12/07 08:52:14;;;;;;;41.03;24.08;;;;;;;;;;5075520;28;20033;-66
2021/12/07 08:59:52;;;;;;;58.95;33.78;;;;;;;;;;5075362;28;20052;-66
2021/12/07 09:02:18;;;;;;;85.78;50.03;;;;;;;;;;5075203;28;20074;-66
2021/12/07 09:04:45;;;;;;;55.30;31.02;;;;;;;;;;5075199;28;20033;-66
2021/12/07 09:07:11;;;;;;;49.45;30.02;;;;;;;;;;5075215;28;20025;-66
2021/12/07 09:09:36;;;;;;;46.05;26.38;;;;;;;;;;5057150;28;20402;-66
2021/12/07 09:12:03;;;;;;;51.30;37.22;;;;;;;;;;5075133;28;20032;-66
2021/12/07 09:14:30;;;;;;;32.83;20.67;;;;;;;;;;5074931;28;20048;-66
2021/12/07 09:16:55;;;;;;;47.15;28.02;;;;;;;;;;5075006;28;20115;-66
2021/12/07 09:19:21;;;;;;;47.15;33.25;;;;;;;;;;5074961;28;20458;-66
2021/12/07 09:21:46;;;;;;;53.92;37.33;;;;;;;;;;5074818;28;20051;-66
2021/12/07 09:24:12;;;;;;;69.28;48.15;;;;;;;;;;5074761;28;20043;-66
2021/12/07 09:26:37;;;;;;;37.53;23.33;;;;;;;;;;5074695;28;20063;-66
2021/12/07 09:29:04;;;;;;;34.20;23.33;;;;;;;;;;5074880;28;20040;-66
2021/12/07 09:31:29;;;;;;;57.80;36.67;;;;;;;;;;5074901;28;20209;-66
2021/12/07 09:33:55;;;;;;;109.65;75.15;;;;;;;;;;5074572;28;20407;-67
2021/12/07 09:36:21;;;;;;;133.70;80.75;;;;;;;;;;5074582;28;20474;-67
2021/12/07 09:38:46;;;;;;;55.22;33.25;;;;;;;;;;5074248;28;20047;-67
2021/12/07 09:41:13;;;;;;;72.38;42.63;;;;;;;;;;5073557;28;20040;-67
2021/12/07 09:43:39;;;;;;;85.13;54.42;;;;;;;;;;5074291;28;20578;-66
2021/12/07 09:46:06;;;;;;;75.50;49.50;;;;;;;;;;5056402;28;20112;-66
2021/12/07 09:48:31;;;;;;;48.20;31.98;;;;;;;;;;5074272;28;20478;-66
2021/12/07 09:50:57;;;;;;;37.85;23.95;;;;;;;;;;5074080;28;20085;-66
2021/12/07 09:53:23;;;;;;;37.33;24.00;;;;;;;;;;5073687;28;20082;-67
2021/12/07 09:55:49;;;;;;;44.00;26.90;;;;;;;;;;5074176;28;20045;-66
2021/12/07 09:58:15;;;;;;;67.18;40.17;;;;;;;;;;5056108;28;20028;-66
2021/12/07 10:00:43;;;;;;;44.17;27.17;;;;;;;;;;5074067;28;20123;-66
2021/12/07 10:03:09;;;;;;;40.90;24.73;;;;;;;;;;5073809;28;20453;-65
2021/12/07 10:05:35;;;;;;;40.80;24.17;;;;;;;;;;5074030;28;20127;-65
2021/12/07 10:08:02;;;;;;;39.92;24.17;;;;;;;;;;5074005;28;20028;-65
2021/12/07 10:10:30;;;;;;;38.13;23.65;;;;;;;;;;5073969;28;20032;-65
2021/12/07 10:12:55;;;;;;;39.55;25.70;;;;;;;;;;5056036;28;20024;-65
2021/12/07 10:15:22;;;;;;;41.20;25.48;;;;;;;;;;5073927;28;20063;-65
2021/12/07 10:18:01;;;;;;;38.42;23.80;;;;;;;;;;5073903;28;20060;-65
2021/12/07 10:20:42;;;;;;;41.40;25.33;;;;;;;;;;5073798;28;20110;-65
2021/12/07 10:23:13;;;;;;;38.67;24.02;;;;;;;;;;5073727;28;20067;-65
2021/12/07 10:25:40;;;;;;;41.45;24.38;;;;;;;;;;5055802;28;20038;-65
2021/12/07 10:28:22;;;;;;;56.67;34.65;;;;;;;;;;5073528;28;20017;-61
2021/12/07 10:30:49;;;;;;;45.05;29.90;;;;;;;;;;5073532;28;20028;-66
2021/12/07 10:33:16;;;;;;;46.33;29.30;;;;;;;;;;5073481;28;20387;-66
2021/12/07 10:35:41;;;;;;;54.10;33.70;;;;;;;;;;5073413;28;20036;-65
2021/12/07 10:38:08;;;;;;;54.78;38.63;;;;;;;;;;5073425;28;20032;-66
2021/12/07 10:40:33;;;;;;;54.15;34.85;;;;;;;;;;5073418;28;20040;-66
2021/12/07 10:42:59;;;;;;;48.75;31.90;;;;;;;;;;5073156;28;20032;-65
2021/12/07 10:45:27;;;;;;;45.22;27.33;;;;;;;;;;5073416;28;20593;-66
2021/12/07 10:47:52;;;;;;;45.45;26.67;;;;;;;;;;5073339;28;20036;-66
2021/12/07 10:50:19;;;;;;;57.75;33.72;;;;;;;;;;5072217;28;20619;-66
2021/12/07 10:52:45;;;;;;;47.50;28.33;;;;;;;;;;5073166;28;20043;-66
2021/12/07 10:55:15;;;;;;;51.78;31.85;;;;;;;;;;5055166;28;20505;-66
2021/12/07 10:57:44;;;;;;;162.02;96.38;;;;;;;;;;5073202;28;20504;-66
2021/12/07 11:00:30;;;;;;;106.78;83.38;;;;;;;;;;5073109;28;20033;-66
2021/12/07 11:03:06;;;;;;;74.18;42.17;;;;;;;;;;5072974;28;20375;-66
2021/12/07 11:05:34;;;;;;;45.03;26.42;;;;;;;;;;5073055;28;20064;-66
2021/12/07 11:08:01;;;;;;;55.90;32.75;;;;;;;;;;5072994;28;20024;-65
2021/12/07 11:10:32;;;;;;;55.28;31.75;;;;;;;;;;5073127;28;20028;-65
2021/12/07 11:15:25;;;;;;;107.13;47.90;;;;;;;;;;5072947;28;20033;-67
2021/12/07 11:17:59;;;;;;;82.85;40.08;;;;;;;;;;5072874;28;20102;-68
2021/12/07 11:20:26;;;;;;;105.85;48.83;;;;;;;;;;5073041;28;20040;-65
2021/12/07 11:22:53;;;;;;;51.00;31.42;;;;;;;;;;5072866;28;20036;-65
2021/12/07 11:25:32;;;;;;;101.82;62.78;;;;;;;;;;5072922;28;20090;-65
2021/12/07 11:30:42;;;;;;;50.25;31.92;;;;;;;;;;5072844;28;20028;-65
2021/12/07 11:33:07;;;;;;;54.03;37.40;;;;;;;;;;5072950;28;20390;-67
2021/12/07 11:35:34;;;;;;;51.35;35.75;;;;;;;;;;5073017;28;20036;-67
2021/12/07 11:38:04;;;;;;;111.30;55.78;;;;;;;;;;5072958;28;20028;-67
2021/12/07 11:40:31;;;;;;;209.48;134.32;;;;;;;;;;5072800;28;20048;-67
2021/12/07 11:42:56;;;;;;;218.10;146.32;;;;;;;;;;5072463;28;20028;-67
2021/12/07 11:45:26;;;;;;;104.13;65.28;;;;;;;;;;5072952;28;20040;-66
2021/12/07 11:47:53;;;;;;;113.55;74.75;;;;;;;;;;5072662;28;20040;-66
2021/12/07 11:50:19;;;;;;;59.17;36.60;;;;;;;;;;5072705;28;20044;-66
2021/12/07 11:52:45;;;;;;;90.85;52.15;;;;;;;;;;5072673;28;20032;-66
2021/12/07 11:55:10;;;;;;;130.68;70.72;;;;;;;;;;5072556;28;20047;-65
2021/12/07 11:57:37;;;;;;;155.55;82.25;;;;;;;;;;5072722;28;20036;-66
2021/12/07 12:00:03;;;;;;;140.38;76.22;;;;;;;;;;5072470;28;20044;-65
2021/12/07 12:02:35;;;;;;;202.73;95.15;;;;;;;;;;5075814;28;20046;-67
2021/12/07 12:05:00;;;;;;;177.10;77.95;;;;;;;;;;5058455;28;20033;-67
2021/12/07 12:07:26;;;;;;;129.50;60.65;;;;;;;;;;5076261;28;20033;-66
2021/12/07 12:09:53;;;;;;;62.58;36.85;;;;;;;;;;5076245;28;20036;-66
2021/12/07 12:12:51;;;;;;;76.18;38.63;;;;;;;;;;5076218;28;20475;-66
2021/12/07 12:15:31;;;;;;;146.68;65.80;;;;;;;;;;5042293;28;20037;-67
2021/12/07 12:18:08;;;;;;;130.98;64.32;;;;;;;;;;5058129;28;20090;-67
2021/12/07 12:20:42;;;;;;;155.25;67.28;;;;;;;;;;5076023;28;20041;-67
2021/12/07 12:23:23;;;;;;;134.40;58.67;;;;;;;;;;5075951;28;20048;-66
2021/12/07 12:25:56;;;;;;;60.80;31.55;;;;;;;;;;5076136;28;20045;-67
2021/12/07 12:28:25;;;;;;;52.83;32.78;;;;;;;;;;5075940;28;20475;-66
2021/12/07 12:30:50;;;;;;;103.28;69.90;;;;;;;;;;5075998;28;20025;-66
2021/12/07 12:33:16;;;;;;;74.55;46.28;;;;;;;;;;5075870;28;20457;-66
2021/12/07 12:35:42;;;;;;;87.50;48.70;;;;;;;;;;5075517;28;20450;-66
2021/12/07 12:38:18;;;;;;;100.72;53.17;;;;;;;;;;5075871;28;20391;-65
2021/12/07 12:40:52;;;;;;;66.35;37.83;;;;;;;;;;5075641;28;20059;-65
2021/12/07 12:43:30;;;;;;;131.82;64.90;;;;;;;;;;5075499;28;20045;-66
2021/12/07 12:46:00;;;;;;;58.65;31.58;;;;;;;;;;5075632;28;20041;-65
2021/12/07 12:48:27;;;;;;;72.30;41.83;;;;;;;;;;5075579;28;20029;-65
2021/12/07 12:50:53;;;;;;;136.27;71.25;;;;;;;;;;5075564;28;20044;-65
2021/12/07 12:53:20;;;;;;;138.05;69.45;;;;;;;;;;5075022;28;20025;-65
2021/12/07 12:55:49;;;;;;;126.05;70.35;;;;;;;;;;5075494;28;20045;-64
2021/12/07 12:58:17;;;;;;;201.98;105.30;;;;;;;;;;5075350;28;20040;-64
2021/12/07 13:01:02;;;;;;;142.70;76.68;;;;;;;;;;5075337;28;20029;-64
2021/12/07 13:03:57;;;;;;;63.03;37.90;;;;;;;;;;5075201;28;20059;-64
2021/12/07 13:06:43;;;;;;;63.10;37.70;;;;;;;;;;5061805;28;20403;-64
2021/12/07 13:09:10;;;;;;;51.33;29.00;;;;;;;;;;5075371;28;20067;-64
2021/12/07 13:11:36;;;;;;;63.28;32.83;;;;;;;;;;5075141;28;20029;-64
2021/12/07 13:14:03;;;;;;;53.80;31.17;;;;;;;;;;5074371;28;20070;-64
2021/12/07 13:16:28;;;;;;;74.03;39.55;;;;;;;;;;5075027;28;20025;-64
2021/12/07 13:19:01;;;;;;;70.15;37.95;;;;;;;;;;5075111;28;20455;-64
2021/12/07 13:21:27;;;;;;;57.55;30.30;;;;;;;;;;5074883;28;20094;-64
2021/12/07 13:24:00;;;;;;;64.53;36.30;;;;;;;;;;5074667;28;20028;-64
2021/12/07 13:26:25;;;;;;;86.00;44.45;;;;;;;;;;5074732;28;20123;-64
2021/12/07 13:29:04;;;;;;;63.50;36.92;;;;;;;;;;5074437;28;20494;-64
2021/12/07 13:31:37;;;;;;;105.95;73.28;;;;;;;;;;5074466;28;20087;-65
2021/12/07 13:34:03;;;;;;;124.65;88.07;;;;;;;;;;5074631;28;20555;-64
2021/12/07 13:36:35;;;;;;;60.08;36.17;;;;;;;;;;5074458;28;20123;-63
2021/12/07 13:39:06;;;;;;;56.72;32.10;;;;;;;;;;5074601;28;20047;-64
2021/12/07 13:41:32;;;;;;;52.88;29.42;;;;;;;;;;5074526;28;20044;-64
2021/12/07 13:43:58;;;;;;;58.92;33.85;;;;;;;;;;5074503;28;20036;-64
2021/12/07 13:46:25;;;;;;;52.35;33.70;;;;;;;;;;5074422;28;20025;-64
2021/12/07 13:48:52;;;;;;;51.25;29.33;;;;;;;;;;5074393;28;20017;-64
2021/12/07 13:51:19;;;;;;;53.58;31.25;;;;;;;;;;5074297;28;20351;-70
2021/12/07 13:53:45;;;;;;;51.90;29.65;;;;;;;;;;5073334;28;20048;-64
2021/12/07 13:56:11;;;;;;;51.58;29.75;;;;;;;;;;5074211;28;20406;-65
2021/12/07 13:58:51;;;;;;;56.67;33.17;;;;;;;;;;5074031;28;20439;-64
2021/12/07 14:01:17;;;;;;;57.38;33.53;;;;;;;;;;5074078;28;20048;-65
2021/12/07 14:03:43;;;;;;;46.58;27.20;;;;;;;;;;5073754;28;20054;-64
2021/12/07 14:06:09;;;;;;;67.53;42.95;;;;;;;;;;5056267;28;20112;-65
2021/12/07 14:08:34;;;;;;;88.93;54.33;;;;;;;;;;5056242;28;20520;-65
2021/12/07 14:10:59;;;;;;;41.88;22.60;;;;;;;;;;5073933;28;20394;-64
2021/12/07 14:13:25;;;;;;;145.27;109.22;;;;;;;;;;5073855;28;20029;-64
2021/12/07 14:15:51;;;;;;;49.85;29.50;;;;;;;;;;5055817;28;20037;-64
2021/12/07 14:18:17;;;;;;;68.25;49.95;;;;;;;;;;5073687;28;20136;-64
2021/12/07 14:20:50;;;;;;;88.75;60.90;;;;;;;;;;5055944;28;20040;-65
2021/12/07 14:23:25;;;;;;;47.00;27.10;;;;;;;;;;5073716;28;20037;-64
2021/12/07 14:25:52;;;;;;;53.22;31.02;;;;;;;;;;5072709;28;20479;-65
2021/12/07 14:28:31;;;;;;;48.63;30.55;;;;;;;;;;5073536;28;20099;-65
2021/12/07 14:31:16;;;;;;;116.82;63.55;;;;;;;;;;5073726;28;20375;-66
2021/12/07 14:33:42;;;;;;;74.55;40.13;;;;;;;;;;5073688;28;20040;-66
2021/12/07 14:36:07;;;;;;;162.27;79.40;;;;;;;;;;5073456;28;20024;-67
2021/12/07 14:38:33;;;;;;;197.48;91.85;;;;;;;;;;5073461;28;20036;-67
2021/12/07 14:41:10;;;;;;;213.55;93.07;;;;;;;;;;5073202;28;20047;-67
2021/12/07 14:43:36;;;;;;;249.52;113.50;;;;;;;;;;5073329;28;20032;-67
2021/12/07 14:46:02;;;;;;;222.15;97.88;;;;;;;;;;5073417;28;20142;-67
2021/12/07 14:48:28;;;;;;;158.52;88.22;;;;;;;;;;5073366;28;20044;-67
2021/12/07 14:50:53;;;;;;;130.60;70.50;;;;;;;;;;5055421;28;20036;-66
2021/12/07 14:53:35;;;;;;;108.18;54.95;;;;;;;;;;5072814;28;20037;-66
2021/12/07 14:56:02;;;;;;;80.75;49.45;;;;;;;;;;5073585;28;20471;-66
2021/12/07 14:58:35;;;;;;;90.40;61.47;;;;;;;;;;5073269;28;20044;-66
2021/12/07 15:01:01;;;;;;;40.22;23.92;;;;;;;;;;5073319;28;20032;-66
2021/12/07 15:03:37;;;;;;;37.47;24.05;;;;;;;;;;5072936;28;20426;-65
2021/12/07 15:06:03;;;;;;;59.05;41.67;;;;;;;;;;5073264;28;20441;-66
2021/12/07 15:08:28;;;;;;;40.85;23.38;;;;;;;;;;5073209;28;20540;-65
2021/12/07 15:10:55;;;;;;;38.55;21.92;;;;;;;;;;5073142;28;20024;-66
2021/12/07 15:13:24;;;;;;;39.00;23.50;;;;;;;;;;5055197;28;20486;-66
2021/12/07 15:15:54;;;;;;;42.72;27.15;;;;;;;;;;5073412;28;20036;-70
2021/12/07 15:18:24;;;;;;;38.80;22.90;;;;;;;;;;5073302;28;20445;-71
2021/12/07 15:20:50;;;;;;;40.83;23.77;;;;;;;;;;5072557;28;20135;-70
2021/12/07 15:23:20;;;;;;;41.45;22.88;;;;;;;;;;5073052;28;20120;-74
2021/12/07 15:25:47;;;;;;;;;;;;;;;;;;5073573;28;20482;-74
2021/12/07 15:28:25;;;;;;;41.70;24.00;;;;;;;;;;5073304;28;19928;-75
2021/12/07 15:30:52;;;;;;;45.35;24.83;;;;;;;;;;5073327;28;20483;-74
2021/12/07 15:33:18;;;;;;;47.17;26.63;;;;;;;;;;5072793;28;20040;-68
2021/12/07 15:35:44;;;;;;;48.55;27.58;;;;;;;;;;5072994;28;20033;-68
2021/12/07 15:38:17;;;;;;;83.90;47.63;;;;;;;;;;5077144;28;20436;-65
2021/12/07 15:40:44;;;;;;;59.22;35.72;;;;;;;;;;5077487;28;20106;-65
2021/12/07 15:43:10;;;;;;;59.92;36.63;;;;;;;;;;5077110;28;20028;-65
2021/12/07 15:45:38;;;;;;;61.13;35.28;;;;;;;;;;5042179;28;20040;-65
2021/12/07 15:48:04;;;;;;;58.03;34.35;;;;;;;;;;5076989;28;20059;-65
2021/12/07 15:50:31;;;;;;;58.95;36.35;;;;;;;;;;5077001;28;20039;-65
2021/12/07 15:53:02;;;;;;;56.22;32.40;;;;;;;;;;5076375;28;20124;-65
2021/12/07 15:55:32;;;;;;;59.78;33.58;;;;;;;;;;5076753;28;20052;-65
2021/12/07 15:58:13;;;;;;;62.65;36.88;;;;;;;;;;5058877;28;20052;-65
2021/12/07 16:00:41;;;;;;;56.70;31.08;;;;;;;;;;5075252;28;20052;-65